Terminal Aerodrome Forecast
Issued by NWS

Home | Current Version | Previous Version | Text Only | Print | Product List | Glossary On
Versions: 1 2 3 4 5 6 7 8 9 10 11 12 13 14 15 16 17 18
939
FTUS43 KGRB 272337
TAFMTW
TAF
KMTW 272337Z 2800/2824 28009KT P6SM -SHRA SCT020 OVC050
      TEMPO 2800/2804 5SM -SHRA BR BKN020
     FM280400 29006KT P6SM VCSH SCT015 OVC050
      TEMPO 2806/2810 4SM BR BKN015
     FM281000 36006KT P6SM -SHRA BKN015 OVC040
     FM281600 03010G17KT P6SM OVC020
     FM282100 04010G17KT P6SM BKN035 BKN090=

USA.gov is the U.S. government's official web portal to all federal, state and local government web resources and services.